sensor_id;sensor_type;location;lat;lon;timestamp;P1;durP1;ratioP1;P2;durP2;ratioP2
61899;SDS011;47853;55.890;37.664;2023-03-14T00:00:19;4.30;;;2.75;;
61899;SDS011;47853;55.890;37.664;2023-03-14T00:02:44;6.70;;;3.20;;
61899;SDS011;47853;55.890;37.664;2023-03-14T00:05:09;5.88;;;3.08;;
61899;SDS011;47853;55.890;37.664;2023-03-14T00:07:36;5.40;;;2.90;;
61899;SDS011;47853;55.890;37.664;2023-03-14T00:10:05;5.85;;;3.15;;
61899;SDS011;47853;55.890;37.664;2023-03-14T00:12:31;6.72;;;2.97;;
61899;SDS011;47853;55.890;37.664;2023-03-14T00:14:56;6.95;;;3.30;;
61899;SDS011;47853;55.890;37.664;2023-03-14T00:17:21;5.70;;;2.70;;
61899;SDS011;47853;55.890;37.664;2023-03-14T00:19:46;3.38;;;2.17;;
61899;SDS011;47853;55.890;37.664;2023-03-14T00:22:11;3.85;;;2.33;;
61899;SDS011;47853;55.890;37.664;2023-03-14T00:24:37;4.38;;;2.13;;
61899;SDS011;47853;55.890;37.664;2023-03-14T00:27:02;3.28;;;1.92;;
61899;SDS011;47853;55.890;37.664;2023-03-14T00:29:27;6.78;;;2.67;;
61899;SDS011;47853;55.890;37.664;2023-03-14T00:31:52;7.43;;;2.50;;
61899;SDS011;47853;55.890;37.664;2023-03-14T00:34:17;4.32;;;2.78;;
61899;SDS011;47853;55.890;37.664;2023-03-14T00:36:44;3.35;;;2.15;;
61899;SDS011;47853;55.890;37.664;2023-03-14T00:39:09;6.10;;;1.90;;
61899;SDS011;47853;55.890;37.664;2023-03-14T00:41:34;5.43;;;2.55;;
61899;SDS011;47853;55.890;37.664;2023-03-14T00:43:59;3.53;;;2.50;;
61899;SDS011;47853;55.890;37.664;2023-03-14T00:46:25;2.17;;;1.67;;
61899;SDS011;47853;55.890;37.664;2023-03-14T00:48:50;3.83;;;1.98;;
61899;SDS011;47853;55.890;37.664;2023-03-14T00:51:15;4.22;;;2.30;;
61899;SDS011;47853;55.890;37.664;2023-03-14T00:53:40;5.63;;;1.92;;
61899;SDS011;47853;55.890;37.664;2023-03-14T00:56:09;6.28;;;2.90;;
61899;SDS011;47853;55.890;37.664;2023-03-14T00:58:35;4.55;;;2.42;;
61899;SDS011;47853;55.890;37.664;2023-03-14T01:01:04;2.53;;;1.55;;
61899;SDS011;47853;55.890;37.664;2023-03-14T01:03:30;2.20;;;1.58;;
61899;SDS011;47853;55.890;37.664;2023-03-14T01:06:05;2.45;;;1.73;;
61899;SDS011;47853;55.890;37.664;2023-03-14T01:08:31;4.10;;;1.90;;
61899;SDS011;47853;55.890;37.664;2023-03-14T01:10:56;3.97;;;1.75;;
61899;SDS011;47853;55.890;37.664;2023-03-14T01:13:21;2.85;;;1.48;;
61899;SDS011;47853;55.890;37.664;2023-03-14T01:15:46;7.15;;;2.42;;
61899;SDS011;47853;55.890;37.664;2023-03-14T01:18:26;3.88;;;1.55;;
61899;SDS011;47853;55.890;37.664;2023-03-14T01:20:51;4.22;;;2.42;;
61899;SDS011;47853;55.890;37.664;2023-03-14T01:23:16;6.05;;;2.10;;
61899;SDS011;47853;55.890;37.664;2023-03-14T01:25:41;4.18;;;2.38;;
61899;SDS011;47853;55.890;37.664;2023-03-14T01:28:06;5.05;;;2.53;;
61899;SDS011;47853;55.890;37.664;2023-03-14T01:30:31;5.32;;;2.33;;
61899;SDS011;47853;55.890;37.664;2023-03-14T01:32:57;2.33;;;1.35;;
61899;SDS011;47853;55.890;37.664;2023-03-14T01:35:22;3.50;;;2.22;;
61899;SDS011;47853;55.890;37.664;2023-03-14T01:37:47;3.83;;;2.13;;
61899;SDS011;47853;55.890;37.664;2023-03-14T01:40:12;3.30;;;1.80;;
61899;SDS011;47853;55.890;37.664;2023-03-14T01:42:37;2.33;;;1.65;;
61899;SDS011;47853;55.890;37.664;2023-03-14T01:45:02;4.18;;;2.63;;
61899;SDS011;47853;55.890;37.664;2023-03-14T01:47:28;2.92;;;2.10;;
61899;SDS011;47853;55.890;37.664;2023-03-14T01:49:58;3.67;;;1.67;;
61899;SDS011;47853;55.890;37.664;2023-03-14T01:52:45;3.08;;;2.50;;
61899;SDS011;47853;55.890;37.664;2023-03-14T01:55:10;4.60;;;2.67;;
61899;SDS011;47853;55.890;37.664;2023-03-14T01:57:37;3.55;;;3.00;;
61899;SDS011;47853;55.890;37.664;2023-03-14T02:00:11;6.50;;;3.08;;
61899;SDS011;47853;55.890;37.664;2023-03-14T02:02:36;6.35;;;2.75;;
61899;SDS011;47853;55.890;37.664;2023-03-14T02:05:02;5.63;;;3.40;;
61899;SDS011;47853;55.890;37.664;2023-03-14T02:07:47;2.97;;;2.63;;
61899;SDS011;47853;55.890;37.664;2023-03-14T02:10:14;2.72;;;2.15;;
61899;SDS011;47853;55.890;37.664;2023-03-14T02:12:39;7.82;;;3.95;;
61899;SDS011;47853;55.890;37.664;2023-03-14T02:15:05;2.15;;;1.75;;
61899;SDS011;47853;55.890;37.664;2023-03-14T02:17:30;4.38;;;2.53;;
61899;SDS011;47853;55.890;37.664;2023-03-14T02:22:20;5.63;;;3.22;;
61899;SDS011;47853;55.890;37.664;2023-03-14T02:29:37;4.32;;;2.63;;
61899;SDS011;47853;55.890;37.664;2023-03-14T02:32:04;7.85;;;4.28;;
61899;SDS011;47853;55.890;37.664;2023-03-14T02:34:30;7.25;;;4.45;;
61899;SDS011;47853;55.890;37.664;2023-03-14T02:36:56;4.78;;;3.80;;
61899;SDS011;47853;55.890;37.664;2023-03-14T02:39:22;7.63;;;3.97;;
61899;SDS011;47853;55.890;37.664;2023-03-14T02:41:49;9.27;;;5.82;;
61899;SDS011;47853;55.890;37.664;2023-03-14T02:44:14;8.88;;;4.97;;
61899;SDS011;47853;55.890;37.664;2023-03-14T02:46:40;8.63;;;4.70;;
61899;SDS011;47853;55.890;37.664;2023-03-14T02:49:07;9.77;;;4.72;;
61899;SDS011;47853;55.890;37.664;2023-03-14T02:51:33;7.00;;;3.53;;
61899;SDS011;47853;55.890;37.664;2023-03-14T02:53:58;7.47;;;5.55;;
61899;SDS011;47853;55.890;37.664;2023-03-14T02:56:23;4.25;;;2.85;;
61899;SDS011;47853;55.890;37.664;2023-03-14T02:58:48;7.25;;;4.10;;
61899;SDS011;47853;55.890;37.664;2023-03-14T03:01:14;6.97;;;4.68;;
61899;SDS011;47853;55.890;37.664;2023-03-14T03:03:39;10.93;;;6.35;;
61899;SDS011;47853;55.890;37.664;2023-03-14T03:06:04;5.13;;;3.53;;
61899;SDS011;47853;55.890;37.664;2023-03-14T03:08:29;9.50;;;6.47;;
61899;SDS011;47853;55.890;37.664;2023-03-14T03:10:56;7.78;;;4.35;;
61899;SDS011;47853;55.890;37.664;2023-03-14T03:13:22;9.93;;;6.90;;
61899;SDS011;47853;55.890;37.664;2023-03-14T03:18:22;5.80;;;4.28;;
61899;SDS011;47853;55.890;37.664;2023-03-14T03:21:06;8.15;;;4.65;;
61899;SDS011;47853;55.890;37.664;2023-03-14T03:23:37;4.68;;;4.00;;
61899;SDS011;47853;55.890;37.664;2023-03-14T03:26:05;9.35;;;6.78;;
61899;SDS011;47853;55.890;37.664;2023-03-14T03:28:30;7.60;;;6.35;;
61899;SDS011;47853;55.890;37.664;2023-03-14T03:30:55;14.40;;;6.00;;
61899;SDS011;47853;55.890;37.664;2023-03-14T03:33:20;11.55;;;7.78;;
61899;SDS011;47853;55.890;37.664;2023-03-14T03:35:49;10.35;;;7.47;;
61899;SDS011;47853;55.890;37.664;2023-03-14T03:38:16;9.65;;;6.22;;
61899;SDS011;47853;55.890;37.664;2023-03-14T03:40:42;11.45;;;6.53;;
61899;SDS011;47853;55.890;37.664;2023-03-14T03:43:07;7.82;;;5.47;;
61899;SDS011;47853;55.890;37.664;2023-03-14T03:48:29;8.38;;;6.28;;
61899;SDS011;47853;55.890;37.664;2023-03-14T03:50:54;13.60;;;8.80;;
61899;SDS011;47853;55.890;37.664;2023-03-14T03:53:22;10.10;;;7.55;;
61899;SDS011;47853;55.890;37.664;2023-03-14T03:55:47;10.07;;;6.68;;
61899;SDS011;47853;55.890;37.664;2023-03-14T03:58:12;8.10;;;5.72;;
61899;SDS011;47853;55.890;37.664;2023-03-14T04:00:38;10.18;;;7.30;;
61899;SDS011;47853;55.890;37.664;2023-03-14T04:03:08;13.63;;;7.35;;
61899;SDS011;47853;55.890;37.664;2023-03-14T04:05:36;12.60;;;8.35;;
61899;SDS011;47853;55.890;37.664;2023-03-14T04:08:02;10.13;;;7.35;;
61899;SDS011;47853;55.890;37.664;2023-03-14T04:10:27;9.35;;;6.25;;
61899;SDS011;47853;55.890;37.664;2023-03-14T04:12:59;11.20;;;6.78;;
61899;SDS011;47853;55.890;37.664;2023-03-14T04:18:16;10.13;;;6.00;;
61899;SDS011;47853;55.890;37.664;2023-03-14T04:20:52;7.30;;;5.68;;
61899;SDS011;47853;55.890;37.664;2023-03-14T04:23:39;13.07;;;9.35;;
61899;SDS011;47853;55.890;37.664;2023-03-14T04:26:09;12.70;;;8.45;;
61899;SDS011;47853;55.890;37.664;2023-03-14T04:28:35;11.50;;;8.77;;
61899;SDS011;47853;55.890;37.664;2023-03-14T04:31:06;12.43;;;7.65;;
61899;SDS011;47853;55.890;37.664;2023-03-14T04:33:31;11.57;;;8.23;;
61899;SDS011;47853;55.890;37.664;2023-03-14T04:35:56;11.02;;;8.40;;
61899;SDS011;47853;55.890;37.664;2023-03-14T04:38:21;15.77;;;8.60;;
61899;SDS011;47853;55.890;37.664;2023-03-14T04:40:47;11.27;;;7.80;;
61899;SDS011;47853;55.890;37.664;2023-03-14T04:43:12;9.80;;;6.30;;
61899;SDS011;47853;55.890;37.664;2023-03-14T04:45:39;11.00;;;7.07;;
61899;SDS011;47853;55.890;37.664;2023-03-14T04:48:05;12.95;;;6.45;;
61899;SDS011;47853;55.890;37.664;2023-03-14T04:50:31;12.50;;;8.68;;
61899;SDS011;47853;55.890;37.664;2023-03-14T04:52:56;9.50;;;5.68;;
61899;SDS011;47853;55.890;37.664;2023-03-14T04:55:21;13.15;;;9.20;;
61899;SDS011;47853;55.890;37.664;2023-03-14T04:57:49;9.07;;;6.32;;
61899;SDS011;47853;55.890;37.664;2023-03-14T05:00:14;10.73;;;5.65;;
61899;SDS011;47853;55.890;37.664;2023-03-14T05:02:40;8.82;;;5.80;;
61899;SDS011;47853;55.890;37.664;2023-03-14T05:05:05;9.82;;;6.18;;
61899;SDS011;47853;55.890;37.664;2023-03-14T05:07:30;8.50;;;6.28;;
61899;SDS011;47853;55.890;37.664;2023-03-14T05:09:55;12.60;;;7.28;;
61899;SDS011;47853;55.890;37.664;2023-03-14T05:12:21;9.95;;;6.93;;
61899;SDS011;47853;55.890;37.664;2023-03-14T05:14:46;11.60;;;8.65;;
61899;SDS011;47853;55.890;37.664;2023-03-14T05:17:11;11.68;;;7.65;;
61899;SDS011;47853;55.890;37.664;2023-03-14T05:19:37;16.60;;;8.55;;
61899;SDS011;47853;55.890;37.664;2023-03-14T05:22:02;11.35;;;6.97;;
61899;SDS011;47853;55.890;37.664;2023-03-14T05:24:27;7.07;;;4.95;;
61899;SDS011;47853;55.890;37.664;2023-03-14T05:26:53;15.55;;;7.90;;
61899;SDS011;47853;55.890;37.664;2023-03-14T05:29:18;23.25;;;10.32;;
61899;SDS011;47853;55.890;37.664;2023-03-14T05:31:43;11.23;;;7.70;;
61899;SDS011;47853;55.890;37.664;2023-03-14T05:34:08;6.45;;;3.88;;
61899;SDS011;47853;55.890;37.664;2023-03-14T05:36:33;9.95;;;6.43;;
61899;SDS011;47853;55.890;37.664;2023-03-14T05:38:59;7.80;;;5.45;;
61899;SDS011;47853;55.890;37.664;2023-03-14T05:41:24;9.52;;;4.93;;
61899;SDS011;47853;55.890;37.664;2023-03-14T05:43:49;25.42;;;4.90;;
61899;SDS011;47853;55.890;37.664;2023-03-14T05:46:14;11.35;;;6.30;;
61899;SDS011;47853;55.890;37.664;2023-03-14T05:48:39;8.88;;;5.43;;
61899;SDS011;47853;55.890;37.664;2023-03-14T05:51:05;6.03;;;5.03;;
61899;SDS011;47853;55.890;37.664;2023-03-14T05:53:30;6.93;;;5.07;;
61899;SDS011;47853;55.890;37.664;2023-03-14T05:55:55;6.03;;;3.88;;
61899;SDS011;47853;55.890;37.664;2023-03-14T05:58:21;6.95;;;4.78;;
61899;SDS011;47853;55.890;37.664;2023-03-14T06:00:46;6.45;;;4.30;;
61899;SDS011;47853;55.890;37.664;2023-03-14T06:03:11;3.22;;;2.47;;
61899;SDS011;47853;55.890;37.664;2023-03-14T06:05:36;8.82;;;4.85;;
61899;SDS011;47853;55.890;37.664;2023-03-14T06:08:01;5.88;;;3.38;;
61899;SDS011;47853;55.890;37.664;2023-03-14T06:10:27;7.15;;;4.50;;
61899;SDS011;47853;55.890;37.664;2023-03-14T06:12:52;7.55;;;4.70;;
61899;SDS011;47853;55.890;37.664;2023-03-14T06:15:17;3.65;;;3.30;;
61899;SDS011;47853;55.890;37.664;2023-03-14T06:17:42;7.07;;;4.03;;
61899;SDS011;47853;55.890;37.664;2023-03-14T06:20:08;7.32;;;3.85;;
61899;SDS011;47853;55.890;37.664;2023-03-14T06:22:33;6.95;;;4.07;;
61899;SDS011;47853;55.890;37.664;2023-03-14T06:24:58;5.40;;;2.80;;
61899;SDS011;47853;55.890;37.664;2023-03-14T06:27:23;5.75;;;3.22;;
61899;SDS011;47853;55.890;37.664;2023-03-14T06:29:49;6.20;;;3.88;;
61899;SDS011;47853;55.890;37.664;2023-03-14T06:32:14;4.90;;;3.42;;
61899;SDS011;47853;55.890;37.664;2023-03-14T06:34:39;9.32;;;3.55;;
61899;SDS011;47853;55.890;37.664;2023-03-14T06:37:04;7.70;;;3.25;;
61899;SDS011;47853;55.890;37.664;2023-03-14T06:39:29;10.95;;;4.18;;
61899;SDS011;47853;55.890;37.664;2023-03-14T06:41:54;7.47;;;3.75;;
61899;SDS011;47853;55.890;37.664;2023-03-14T06:44:20;7.38;;;3.92;;
61899;SDS011;47853;55.890;37.664;2023-03-14T06:46:45;6.30;;;2.97;;
61899;SDS011;47853;55.890;37.664;2023-03-14T06:49:10;5.20;;;2.45;;
61899;SDS011;47853;55.890;37.664;2023-03-14T06:51:35;9.05;;;3.05;;
61899;SDS011;47853;55.890;37.664;2023-03-14T06:54:00;5.75;;;3.38;;
61899;SDS011;47853;55.890;37.664;2023-03-14T06:56:25;10.32;;;4.13;;
61899;SDS011;47853;55.890;37.664;2023-03-14T06:58:51;6.82;;;3.53;;
61899;SDS011;47853;55.890;37.664;2023-03-14T07:04:10;8.13;;;3.88;;
61899;SDS011;47853;55.890;37.664;2023-03-14T07:06:35;6.22;;;3.70;;
61899;SDS011;47853;55.890;37.664;2023-03-14T07:09:01;14.38;;;8.23;;
61899;SDS011;47853;55.890;37.664;2023-03-14T07:11:26;7.13;;;3.58;;
61899;SDS011;47853;55.890;37.664;2023-03-14T07:13:51;6.43;;;4.00;;
61899;SDS011;47853;55.890;37.664;2023-03-14T07:16:24;7.13;;;3.78;;
61899;SDS011;47853;55.890;37.664;2023-03-14T07:18:49;5.78;;;4.53;;
61899;SDS011;47853;55.890;37.664;2023-03-14T07:21:14;8.98;;;3.17;;
61899;SDS011;47853;55.890;37.664;2023-03-14T07:23:39;6.43;;;3.47;;
61899;SDS011;47853;55.890;37.664;2023-03-14T07:26:04;6.97;;;3.42;;
61899;SDS011;47853;55.890;37.664;2023-03-14T07:28:30;3.10;;;2.42;;
61899;SDS011;47853;55.890;37.664;2023-03-14T07:30:55;9.63;;;5.60;;
61899;SDS011;47853;55.890;37.664;2023-03-14T07:33:20;12.23;;;6.65;;
61899;SDS011;47853;55.890;37.664;2023-03-14T07:35:49;9.15;;;4.88;;
61899;SDS011;47853;55.890;37.664;2023-03-14T07:38:14;6.18;;;3.28;;
61899;SDS011;47853;55.890;37.664;2023-03-14T07:40:40;3.15;;;2.47;;
61899;SDS011;47853;55.890;37.664;2023-03-14T07:43:05;5.20;;;3.53;;
61899;SDS011;47853;55.890;37.664;2023-03-14T07:45:30;6.32;;;3.80;;
61899;SDS011;47853;55.890;37.664;2023-03-14T07:47:55;6.25;;;2.92;;
61899;SDS011;47853;55.890;37.664;2023-03-14T07:52:59;4.93;;;3.60;;
61899;SDS011;47853;55.890;37.664;2023-03-14T07:55:27;9.50;;;3.47;;
61899;SDS011;47853;55.890;37.664;2023-03-14T07:57:53;6.47;;;3.80;;
61899;SDS011;47853;55.890;37.664;2023-03-14T08:00:18;3.70;;;2.65;;
61899;SDS011;47853;55.890;37.664;2023-03-14T08:02:43;5.45;;;3.72;;
61899;SDS011;47853;55.890;37.664;2023-03-14T08:05:08;12.70;;;3.25;;
61899;SDS011;47853;55.890;37.664;2023-03-14T08:07:34;4.97;;;2.92;;
61899;SDS011;47853;55.890;37.664;2023-03-14T08:09:59;6.82;;;3.50;;
61899;SDS011;47853;55.890;37.664;2023-03-14T08:12:24;5.97;;;2.28;;
61899;SDS011;47853;55.890;37.664;2023-03-14T08:14:49;12.55;;;4.40;;
61899;SDS011;47853;55.890;37.664;2023-03-14T08:20:12;5.45;;;3.88;;
61899;SDS011;47853;55.890;37.664;2023-03-14T08:25:24;7.78;;;4.05;;
61899;SDS011;47853;55.890;37.664;2023-03-14T08:27:49;7.65;;;3.42;;
61899;SDS011;47853;55.890;37.664;2023-03-14T08:32:41;8.15;;;2.92;;
61899;SDS011;47853;55.890;37.664;2023-03-14T08:35:06;3.70;;;2.45;;
61899;SDS011;47853;55.890;37.664;2023-03-14T08:37:35;5.15;;;3.03;;
61899;SDS011;47853;55.890;37.664;2023-03-14T08:40:03;8.02;;;3.45;;
61899;SDS011;47853;55.890;37.664;2023-03-14T08:42:35;9.57;;;4.25;;
61899;SDS011;47853;55.890;37.664;2023-03-14T08:45:06;6.95;;;4.65;;
61899;SDS011;47853;55.890;37.664;2023-03-14T08:47:41;9.50;;;4.20;;
61899;SDS011;47853;55.890;37.664;2023-03-14T08:52:31;3.00;;;2.35;;
61899;SDS011;47853;55.890;37.664;2023-03-14T08:57:48;8.57;;;3.72;;
61899;SDS011;47853;55.890;37.664;2023-03-14T09:00:13;5.97;;;3.50;;
61899;SDS011;47853;55.890;37.664;2023-03-14T09:02:38;5.57;;;2.75;;
61899;SDS011;47853;55.890;37.664;2023-03-14T09:05:04;9.63;;;4.50;;
61899;SDS011;47853;55.890;37.664;2023-03-14T09:07:29;12.75;;;3.97;;
61899;SDS011;47853;55.890;37.664;2023-03-14T09:09:54;4.20;;;3.47;;
61899;SDS011;47853;55.890;37.664;2023-03-14T09:12:19;3.87;;;2.60;;
61899;SDS011;47853;55.890;37.664;2023-03-14T09:14:44;3.75;;;2.75;;
61899;SDS011;47853;55.890;37.664;2023-03-14T09:17:10;4.53;;;3.10;;
61899;SDS011;47853;55.890;37.664;2023-03-14T09:19:35;8.02;;;3.95;;
61899;SDS011;47853;55.890;37.664;2023-03-14T09:22:00;7.55;;;3.22;;
61899;SDS011;47853;55.890;37.664;2023-03-14T09:24:25;3.40;;;3.10;;
61899;SDS011;47853;55.890;37.664;2023-03-14T09:26:50;6.32;;;3.13;;
61899;SDS011;47853;55.890;37.664;2023-03-14T09:29:15;7.07;;;3.50;;
61899;SDS011;47853;55.890;37.664;2023-03-14T09:31:41;9.18;;;4.15;;
61899;SDS011;47853;55.890;37.664;2023-03-14T09:34:06;8.30;;;3.80;;
61899;SDS011;47853;55.890;37.664;2023-03-14T09:36:31;4.82;;;3.10;;
61899;SDS011;47853;55.890;37.664;2023-03-14T09:38:56;5.03;;;3.38;;
61899;SDS011;47853;55.890;37.664;2023-03-14T09:41:25;4.40;;;2.67;;
61899;SDS011;47853;55.890;37.664;2023-03-14T09:44:13;9.02;;;4.15;;
61899;SDS011;47853;55.890;37.664;2023-03-14T09:46:37;4.53;;;3.30;;
61899;SDS011;47853;55.890;37.664;2023-03-14T09:49:05;6.00;;;2.97;;
61899;SDS011;47853;55.890;37.664;2023-03-14T09:51:34;7.75;;;3.95;;
61899;SDS011;47853;55.890;37.664;2023-03-14T10:14:06;8.50;;;3.72;;
61899;SDS011;47853;55.890;37.664;2023-03-14T10:16:33;10.20;;;3.55;;
61899;SDS011;47853;55.890;37.664;2023-03-14T10:19:02;7.35;;;3.60;;
61899;SDS011;47853;55.890;37.664;2023-03-14T10:21:30;5.78;;;3.58;;
61899;SDS011;47853;55.890;37.664;2023-03-14T10:26:39;11.40;;;4.18;;
61899;SDS011;47853;55.890;37.664;2023-03-14T10:29:08;8.77;;;4.05;;
61899;SDS011;47853;55.890;37.664;2023-03-14T10:31:46;6.03;;;3.60;;
61899;SDS011;47853;55.890;37.664;2023-03-14T10:34:12;5.60;;;3.80;;
61899;SDS011;47853;55.890;37.664;2023-03-14T10:36:39;7.20;;;4.00;;
61899;SDS011;47853;55.890;37.664;2023-03-14T10:39:24;8.63;;;4.30;;
61899;SDS011;47853;55.890;37.664;2023-03-14T10:41:52;7.70;;;4.53;;
61899;SDS011;47853;55.890;37.664;2023-03-14T10:44:19;3.67;;;2.63;;
61899;SDS011;47853;55.890;37.664;2023-03-14T10:46:45;6.53;;;4.28;;
61899;SDS011;47853;55.890;37.664;2023-03-14T10:49:16;4.55;;;3.45;;
61899;SDS011;47853;55.890;37.664;2023-03-14T10:51:47;7.32;;;4.40;;
61899;SDS011;47853;55.890;37.664;2023-03-14T10:54:19;7.50;;;4.28;;
61899;SDS011;47853;55.890;37.664;2023-03-14T10:56:45;9.02;;;3.95;;
61899;SDS011;47853;55.890;37.664;2023-03-14T10:59:20;10.77;;;5.60;;
61899;SDS011;47853;55.890;37.664;2023-03-14T11:09:16;5.85;;;3.63;;
61899;SDS011;47853;55.890;37.664;2023-03-14T11:11:44;5.90;;;3.42;;
61899;SDS011;47853;55.890;37.664;2023-03-14T11:19:13;6.03;;;3.47;;
61899;SDS011;47853;55.890;37.664;2023-03-14T11:24:13;4.78;;;3.25;;
61899;SDS011;47853;55.890;37.664;2023-03-14T11:26:42;7.93;;;3.63;;
61899;SDS011;47853;55.890;37.664;2023-03-14T11:29:21;6.38;;;3.90;;
61899;SDS011;47853;55.890;37.664;2023-03-14T11:31:48;4.28;;;3.13;;
61899;SDS011;47853;55.890;37.664;2023-03-14T11:34:17;9.33;;;3.30;;
61899;SDS011;47853;55.890;37.664;2023-03-14T11:36:50;6.90;;;3.65;;
61899;SDS011;47853;55.890;37.664;2023-03-14T11:39:17;6.07;;;3.47;;
61899;SDS011;47853;55.890;37.664;2023-03-14T11:41:46;8.18;;;3.40;;
61899;SDS011;47853;55.890;37.664;2023-03-14T11:44:33;3.97;;;2.92;;
61899;SDS011;47853;55.890;37.664;2023-03-14T11:47:02;6.55;;;3.83;;
61899;SDS011;47853;55.890;37.664;2023-03-14T11:49:40;9.43;;;4.45;;
61899;SDS011;47853;55.890;37.664;2023-03-14T11:52:15;4.72;;;3.42;;
61899;SDS011;47853;55.890;37.664;2023-03-14T11:54:46;5.55;;;3.38;;
61899;SDS011;47853;55.890;37.664;2023-03-14T11:57:14;8.15;;;3.08;;
61899;SDS011;47853;55.890;37.664;2023-03-14T12:02:33;4.85;;;3.58;;
61899;SDS011;47853;55.890;37.664;2023-03-14T12:08:03;8.68;;;3.53;;
61899;SDS011;47853;55.890;37.664;2023-03-14T12:10:26;10.27;;;3.63;;
61899;SDS011;47853;55.890;37.664;2023-03-14T12:12:52;5.82;;;3.00;;
61899;SDS011;47853;55.890;37.664;2023-03-14T12:15:18;7.00;;;5.00;;
61899;SDS011;47853;55.890;37.664;2023-03-14T12:17:44;7.93;;;3.35;;
61899;SDS011;47853;55.890;37.664;2023-03-14T12:22:35;3.93;;;2.97;;
61899;SDS011;47853;55.890;37.664;2023-03-14T12:25:13;5.22;;;3.58;;
61899;SDS011;47853;55.890;37.664;2023-03-14T12:30:04;7.28;;;4.20;;
61899;SDS011;47853;55.890;37.664;2023-03-14T12:32:40;8.18;;;3.88;;
61899;SDS011;47853;55.890;37.664;2023-03-14T12:37:49;3.88;;;2.83;;
61899;SDS011;47853;55.890;37.664;2023-03-14T12:40:21;8.95;;;3.60;;
61899;SDS011;47853;55.890;37.664;2023-03-14T12:43:00;8.40;;;3.90;;
61899;SDS011;47853;55.890;37.664;2023-03-14T12:45:27;4.03;;;2.78;;
61899;SDS011;47853;55.890;37.664;2023-03-14T12:47:53;5.28;;;2.72;;
61899;SDS011;47853;55.890;37.664;2023-03-14T12:50:41;8.55;;;4.43;;
61899;SDS011;47853;55.890;37.664;2023-03-14T12:58:04;9.25;;;3.58;;
61899;SDS011;47853;55.890;37.664;2023-03-14T13:00:32;6.85;;;3.85;;
61899;SDS011;47853;55.890;37.664;2023-03-14T13:03:42;7.80;;;3.45;;
61899;SDS011;47853;55.890;37.664;2023-03-14T13:05:55;6.22;;;3.85;;
61899;SDS011;47853;55.890;37.664;2023-03-14T13:11:01;3.53;;;2.72;;
61899;SDS011;47853;55.890;37.664;2023-03-14T13:13:27;6.93;;;3.20;;
61899;SDS011;47853;55.890;37.664;2023-03-14T13:15:56;2.67;;;2.47;;
61899;SDS011;47853;55.890;37.664;2023-03-14T13:18:38;4.47;;;3.78;;
61899;SDS011;47853;55.890;37.664;2023-03-14T13:21:22;5.93;;;4.13;;
61899;SDS011;47853;55.890;37.664;2023-03-14T13:24:02;4.55;;;3.45;;
61899;SDS011;47853;55.890;37.664;2023-03-14T13:26:35;12.27;;;3.67;;
61899;SDS011;47853;55.890;37.664;2023-03-14T13:29:08;5.60;;;2.42;;
61899;SDS011;47853;55.890;37.664;2023-03-14T13:31:33;6.80;;;2.63;;
61899;SDS011;47853;55.890;37.664;2023-03-14T13:34:04;5.55;;;2.10;;
61899;SDS011;47853;55.890;37.664;2023-03-14T13:36:29;6.47;;;3.35;;
61899;SDS011;47853;55.890;37.664;2023-03-14T13:38:55;8.30;;;3.78;;
61899;SDS011;47853;55.890;37.664;2023-03-14T13:41:22;4.80;;;3.20;;
61899;SDS011;47853;55.890;37.664;2023-03-14T13:43:48;3.80;;;2.67;;
61899;SDS011;47853;55.890;37.664;2023-03-14T13:46:19;5.20;;;3.70;;
61899;SDS011;47853;55.890;37.664;2023-03-14T13:48:49;3.92;;;2.70;;
61899;SDS011;47853;55.890;37.664;2023-03-14T13:51:16;4.45;;;3.45;;
61899;SDS011;47853;55.890;37.664;2023-03-14T13:53:43;4.10;;;2.97;;
61899;SDS011;47853;55.890;37.664;2023-03-14T13:56:11;5.93;;;3.40;;
61899;SDS011;47853;55.890;37.664;2023-03-14T13:58:36;6.00;;;3.53;;
61899;SDS011;47853;55.890;37.664;2023-03-14T14:01:03;4.10;;;3.40;;
61899;SDS011;47853;55.890;37.664;2023-03-14T14:03:31;8.05;;;3.60;;
61899;SDS011;47853;55.890;37.664;2023-03-14T14:05:56;5.15;;;2.70;;
61899;SDS011;47853;55.890;37.664;2023-03-14T14:08:22;7.60;;;3.10;;
61899;SDS011;47853;55.890;37.664;2023-03-14T14:10:47;5.05;;;3.30;;
61899;SDS011;47853;55.890;37.664;2023-03-14T14:13:13;4.45;;;3.05;;
61899;SDS011;47853;55.890;37.664;2023-03-14T14:15:41;5.55;;;3.35;;
61899;SDS011;47853;55.890;37.664;2023-03-14T14:18:08;6.18;;;3.40;;
61899;SDS011;47853;55.890;37.664;2023-03-14T14:20:36;7.43;;;3.35;;
61899;SDS011;47853;55.890;37.664;2023-03-14T14:23:03;4.50;;;3.25;;
61899;SDS011;47853;55.890;37.664;2023-03-14T14:25:34;7.90;;;4.28;;
61899;SDS011;47853;55.890;37.664;2023-03-14T14:28:14;7.93;;;3.53;;
61899;SDS011;47853;55.890;37.664;2023-03-14T14:30:42;4.72;;;3.10;;
61899;SDS011;47853;55.890;37.664;2023-03-14T14:33:25;14.07;;;4.22;;
61899;SDS011;47853;55.890;37.664;2023-03-14T14:35:55;12.93;;;3.63;;
61899;SDS011;47853;55.890;37.664;2023-03-14T14:38:21;11.52;;;2.72;;
61899;SDS011;47853;55.890;37.664;2023-03-14T14:40:47;6.78;;;3.72;;
61899;SDS011;47853;55.890;37.664;2023-03-14T14:43:17;6.72;;;3.50;;
61899;SDS011;47853;55.890;37.664;2023-03-14T14:45:43;8.18;;;3.40;;
61899;SDS011;47853;55.890;37.664;2023-03-14T14:48:10;6.03;;;3.30;;
61899;SDS011;47853;55.890;37.664;2023-03-14T14:50:37;5.05;;;3.10;;
61899;SDS011;47853;55.890;37.664;2023-03-14T14:53:48;4.30;;;2.25;;
61899;SDS011;47853;55.890;37.664;2023-03-14T14:55:52;5.10;;;3.47;;
61899;SDS011;47853;55.890;37.664;2023-03-14T15:00:57;8.60;;;3.70;;
61899;SDS011;47853;55.890;37.664;2023-03-14T15:03:23;3.28;;;2.17;;
61899;SDS011;47853;55.890;37.664;2023-03-14T15:05:51;7.15;;;3.38;;
61899;SDS011;47853;55.890;37.664;2023-03-14T15:08:16;8.60;;;3.35;;
61899;SDS011;47853;55.890;37.664;2023-03-14T15:10:41;7.45;;;3.88;;
61899;SDS011;47853;55.890;37.664;2023-03-14T15:13:06;6.18;;;3.63;;
61899;SDS011;47853;55.890;37.664;2023-03-14T15:15:31;5.60;;;3.60;;
61899;SDS011;47853;55.890;37.664;2023-03-14T15:17:57;4.18;;;2.88;;
61899;SDS011;47853;55.890;37.664;2023-03-14T15:20:22;6.10;;;3.20;;
61899;SDS011;47853;55.890;37.664;2023-03-14T15:22:47;5.90;;;2.97;;
61899;SDS011;47853;55.890;37.664;2023-03-14T15:25:12;5.30;;;3.67;;
61899;SDS011;47853;55.890;37.664;2023-03-14T15:27:37;5.80;;;2.08;;
61899;SDS011;47853;55.890;37.664;2023-03-14T15:30:03;5.35;;;3.28;;
61899;SDS011;47853;55.890;37.664;2023-03-14T15:32:28;6.43;;;3.80;;
61899;SDS011;47853;55.890;37.664;2023-03-14T15:34:56;9.13;;;3.20;;
61899;SDS011;47853;55.890;37.664;2023-03-14T15:37:21;4.45;;;3.42;;
61899;SDS011;47853;55.890;37.664;2023-03-14T15:39:47;4.95;;;3.42;;
61899;SDS011;47853;55.890;37.664;2023-03-14T15:42:12;7.13;;;3.90;;
61899;SDS011;47853;55.890;37.664;2023-03-14T15:44:37;6.75;;;3.88;;
61899;SDS011;47853;55.890;37.664;2023-03-14T15:47:03;4.88;;;3.20;;
61899;SDS011;47853;55.890;37.664;2023-03-14T15:49:28;7.20;;;3.85;;
61899;SDS011;47853;55.890;37.664;2023-03-14T15:51:53;8.65;;;3.00;;
61899;SDS011;47853;55.890;37.664;2023-03-14T15:54:18;6.10;;;3.57;;
61899;SDS011;47853;55.890;37.664;2023-03-14T15:56:44;3.67;;;3.03;;
61899;SDS011;47853;55.890;37.664;2023-03-14T15:59:09;6.60;;;4.05;;
61899;SDS011;47853;55.890;37.664;2023-03-14T16:01:34;4.63;;;3.37;;
61899;SDS011;47853;55.890;37.664;2023-03-14T16:03:59;4.90;;;3.50;;
61899;SDS011;47853;55.890;37.664;2023-03-14T16:06:24;6.43;;;3.40;;
61899;SDS011;47853;55.890;37.664;2023-03-14T16:08:50;7.07;;;3.55;;